KLNA/LNA METAR and TAF weather

Enter ICAO airport designator
Station Type Date Time Source
KLNA METAR 2018/12/13 06:35 UTC NOAA

KLNA 130635Z AUTO 09010G14KT 10SM OVC060 21/14 A3015 RMK AO2 T02140138


Station Type Date Time Source
KLNA Decoded METAR 2018/12/13 06:35 UTC NOAA

Station name not available
Dec 13, 2018 - 01:35 AM EST / 2018.12.13 0635 UTC
Wind: from the E (090 degrees) at 12 MPH (10 KT) gusting to 16 MPH (14 KT):0
Visibility: 10 mile(s):0
Sky conditions: overcast
Temperature: 70.5 F (21.4 C)
Dew Point: 56.8 F (13.8 C)
Relative Humidity: 61%
Pressure (altimeter): 30.15 in. Hg (1020 hPa)
ob: KLNA 130635Z AUTO 09010G14KT 10SM OVC060 21/14 A3015 RMK AO2 T02140138
cycle: 6

Station Type Date Time Source
KLNA TAF UTC NOAA

Error!


Example: see airport list